sensor_id;sensor_type;location;lat;lon;timestamp;pressure;altitude;pressure_sealevel;temperature;humidity
82416;BME280;72058;47.782;10.618;2023-09-30T00:02:11;94280.06;;;17.81;64.78
82416;BME280;72058;47.782;10.618;2023-09-30T00:04:37;94277.75;;;17.83;64.25
82416;BME280;72058;47.782;10.618;2023-09-30T00:07:03;94274.44;;;17.77;64.58
82416;BME280;72058;47.782;10.618;2023-09-30T00:09:28;94286.38;;;17.81;64.13
82416;BME280;72058;47.782;10.618;2023-09-30T00:11:53;94283.38;;;17.74;64.27
82416;BME280;72058;47.782;10.618;2023-09-30T00:14:20;94280.63;;;17.74;64.19
82416;BME280;72058;47.782;10.618;2023-09-30T00:16:45;94282.22;;;17.75;64.17
82416;BME280;72058;47.782;10.618;2023-09-30T00:19:11;94284.75;;;17.80;63.84
82416;BME280;72058;47.782;10.618;2023-09-30T00:21:36;94282.00;;;17.80;63.59
82416;BME280;72058;47.782;10.618;2023-09-30T00:24:01;94271.69;;;17.90;63.24
82416;BME280;72058;47.782;10.618;2023-09-30T00:26:27;94281.78;;;17.86;63.36
82416;BME280;72058;47.782;10.618;2023-09-30T00:28:52;94277.88;;;17.87;63.29
82416;BME280;72058;47.782;10.618;2023-09-30T00:31:18;94288.88;;;17.87;63.12
82416;BME280;72058;47.782;10.618;2023-09-30T00:33:43;94297.34;;;17.94;62.74
82416;BME280;72058;47.782;10.618;2023-09-30T00:36:09;94300.44;;;17.92;62.87
82416;BME280;72058;47.782;10.618;2023-09-30T00:38:36;94300.13;;;17.94;63.10
82416;BME280;72058;47.782;10.618;2023-09-30T00:41:02;94299.09;;;17.86;63.09
82416;BME280;72058;47.782;10.618;2023-09-30T00:43:27;94298.97;;;17.82;63.43
82416;BME280;72058;47.782;10.618;2023-09-30T00:46:01;94303.22;;;17.80;64.15
82416;BME280;72058;47.782;10.618;2023-09-30T00:48:28;94298.97;;;17.82;64.22
82416;BME280;72058;47.782;10.618;2023-09-30T00:50:53;94316.19;;;17.79;64.40
82416;BME280;72058;47.782;10.618;2023-09-30T00:53:19;94306.66;;;17.77;65.31
82416;BME280;72058;47.782;10.618;2023-09-30T00:55:45;94309.88;;;17.79;65.64
82416;BME280;72058;47.782;10.618;2023-09-30T00:58:11;94307.13;;;17.79;65.69
82416;BME280;72058;47.782;10.618;2023-09-30T01:00:37;94305.19;;;17.79;65.34
82416;BME280;72058;47.782;10.618;2023-09-30T01:03:03;94305.63;;;17.69;65.57
82416;BME280;72058;47.782;10.618;2023-09-30T01:05:30;94296.09;;;17.67;66.06
82416;BME280;72058;47.782;10.618;2023-09-30T01:07:55;94294.06;;;17.64;66.01
82416;BME280;72058;47.782;10.618;2023-09-30T01:10:21;94292.44;;;17.63;66.34
82416;BME280;72058;47.782;10.618;2023-09-30T01:12:46;94289.19;;;17.61;67.27
82416;BME280;72058;47.782;10.618;2023-09-30T01:15:12;94288.22;;;17.65;67.18
82416;BME280;72058;47.782;10.618;2023-09-30T01:17:37;94286.94;;;17.63;67.54
82416;BME280;72058;47.782;10.618;2023-09-30T01:20:03;94280.84;;;17.57;67.68
82416;BME280;72058;47.782;10.618;2023-09-30T01:22:32;94286.47;;;17.49;68.24
82416;BME280;72058;47.782;10.618;2023-09-30T01:24:58;94279.44;;;17.51;68.82
82416;BME280;72058;47.782;10.618;2023-09-30T01:27:23;94278.53;;;17.47;68.89
82416;BME280;72058;47.782;10.618;2023-09-30T01:29:49;94281.06;;;17.52;69.24
82416;BME280;72058;47.782;10.618;2023-09-30T01:32:15;94276.91;;;17.58;69.05
82416;BME280;72058;47.782;10.618;2023-09-30T01:34:40;94279.66;;;17.34;70.57
82416;BME280;72058;47.782;10.618;2023-09-30T01:37:06;94274.16;;;17.34;70.75
82416;BME280;72058;47.782;10.618;2023-09-30T01:39:31;94280.91;;;17.24;71.03
82416;BME280;72058;47.782;10.618;2023-09-30T01:41:57;94282.09;;;17.23;70.73
82416;BME280;72058;47.782;10.618;2023-09-30T01:44:23;94282.75;;;17.20;70.16
82416;BME280;72058;47.782;10.618;2023-09-30T01:46:48;94280.81;;;17.21;70.49
82416;BME280;72058;47.782;10.618;2023-09-30T01:49:13;94285.97;;;17.22;69.08
82416;BME280;72058;47.782;10.618;2023-09-30T01:51:39;94280.13;;;17.24;68.15
82416;BME280;72058;47.782;10.618;2023-09-30T01:54:04;94274.41;;;17.29;67.43
82416;BME280;72058;47.782;10.618;2023-09-30T01:56:30;94269.47;;;17.34;66.02
82416;BME280;72058;47.782;10.618;2023-09-30T01:58:56;94266.94;;;17.29;65.88
82416;BME280;72058;47.782;10.618;2023-09-30T02:01:22;94272.13;;;17.31;65.49
82416;BME280;72058;47.782;10.618;2023-09-30T02:03:47;94266.47;;;17.27;65.21
82416;BME280;72058;47.782;10.618;2023-09-30T02:06:13;94273.84;;;17.23;65.62
82416;BME280;72058;47.782;10.618;2023-09-30T02:08:38;94278.28;;;17.28;65.26
82416;BME280;72058;47.782;10.618;2023-09-30T02:11:03;94273.25;;;17.30;66.37
82416;BME280;72058;47.782;10.618;2023-09-30T02:13:33;94277.03;;;17.37;66.36
82416;BME280;72058;47.782;10.618;2023-09-30T02:15:58;94272.00;;;17.15;67.27
82416;BME280;72058;47.782;10.618;2023-09-30T02:18:24;94272.22;;;17.22;67.14
82416;BME280;72058;47.782;10.618;2023-09-30T02:20:49;94272.56;;;17.21;67.20
82416;BME280;72058;47.782;10.618;2023-09-30T02:23:15;94270.38;;;17.26;67.17
82416;BME280;72058;47.782;10.618;2023-09-30T02:25:42;94266.81;;;17.14;68.16
82416;BME280;72058;47.782;10.618;2023-09-30T02:28:08;94264.97;;;17.05;69.64
82416;BME280;72058;47.782;10.618;2023-09-30T02:30:34;94267.94;;;17.00;70.30
82416;BME280;72058;47.782;10.618;2023-09-30T02:32:59;94267.22;;;16.91;71.42
82416;BME280;72058;47.782;10.618;2023-09-30T02:35:25;94274.66;;;16.91;71.62
82416;BME280;72058;47.782;10.618;2023-09-30T02:37:51;94268.13;;;16.83;72.21
82416;BME280;72058;47.782;10.618;2023-09-30T02:40:17;94273.19;;;16.93;71.73
82416;BME280;72058;47.782;10.618;2023-09-30T02:42:43;94267.59;;;17.02;71.15
82416;BME280;72058;47.782;10.618;2023-09-30T02:45:10;94272.03;;;16.94;71.43
82416;BME280;72058;47.782;10.618;2023-09-30T02:47:36;94263.88;;;16.86;71.99
82416;BME280;72058;47.782;10.618;2023-09-30T02:50:02;94272.22;;;16.77;72.25
82416;BME280;72058;47.782;10.618;2023-09-30T02:52:29;94263.72;;;16.70;72.54
82416;BME280;72058;47.782;10.618;2023-09-30T02:54:55;94252.97;;;16.65;72.65
82416;BME280;72058;47.782;10.618;2023-09-30T02:57:22;94265.09;;;16.64;72.75
82416;BME280;72058;47.782;10.618;2023-09-30T02:59:48;94255.63;;;16.74;72.00
82416;BME280;72058;47.782;10.618;2023-09-30T03:02:13;94254.47;;;16.75;72.19
82416;BME280;72058;47.782;10.618;2023-09-30T03:04:40;94258.00;;;16.75;72.08
82416;BME280;72058;47.782;10.618;2023-09-30T03:07:05;94252.97;;;16.65;71.93
82416;BME280;72058;47.782;10.618;2023-09-30T03:09:31;94254.56;;;16.66;71.74
82416;BME280;72058;47.782;10.618;2023-09-30T03:11:56;94249.56;;;16.80;70.50
82416;BME280;72058;47.782;10.618;2023-09-30T03:14:23;94254.59;;;16.78;70.44
82416;BME280;72058;47.782;10.618;2023-09-30T03:16:50;94254.13;;;16.76;71.13
82416;BME280;72058;47.782;10.618;2023-09-30T03:19:15;94255.19;;;16.84;70.37
82416;BME280;72058;47.782;10.618;2023-09-30T03:21:42;94259.97;;;16.75;70.92
82416;BME280;72058;47.782;10.618;2023-09-30T03:24:07;94267.41;;;16.74;71.02
82416;BME280;72058;47.782;10.618;2023-09-30T03:26:33;94263.97;;;16.77;70.55
82416;BME280;72058;47.782;10.618;2023-09-30T03:28:59;94267.66;;;16.81;70.52
82416;BME280;72058;47.782;10.618;2023-09-30T03:31:25;94257.13;;;16.83;70.10
82416;BME280;72058;47.782;10.618;2023-09-30T03:33:50;94261.47;;;16.72;70.13
82416;BME280;72058;47.782;10.618;2023-09-30T03:36:21;94262.19;;;16.81;70.25
82416;BME280;72058;47.782;10.618;2023-09-30T03:38:50;94270.03;;;16.71;70.67
82416;BME280;72058;47.782;10.618;2023-09-30T03:41:15;94253.66;;;16.74;70.22
82416;BME280;72058;47.782;10.618;2023-09-30T03:43:40;94259.63;;;16.76;70.39
82416;BME280;72058;47.782;10.618;2023-09-30T03:46:09;94259.97;;;16.75;70.67
82416;BME280;72058;47.782;10.618;2023-09-30T03:48:34;94261.22;;;16.77;70.41
82416;BME280;72058;47.782;10.618;2023-09-30T03:51:11;94263.66;;;16.91;70.01
82416;BME280;72058;47.782;10.618;2023-09-30T03:53:44;94261.72;;;16.91;69.96
82416;BME280;72058;47.782;10.618;2023-09-30T03:56:09;94258.63;;;16.93;69.92
82416;BME280;72058;47.782;10.618;2023-09-30T03:58:42;94263.19;;;16.77;70.36
82416;BME280;72058;47.782;10.618;2023-09-30T04:01:11;94270.41;;;16.60;70.95
82416;BME280;72058;47.782;10.618;2023-09-30T04:03:37;94271.31;;;16.73;70.33
82416;BME280;72058;47.782;10.618;2023-09-30T04:06:04;94278.19;;;16.79;70.48
82416;BME280;72058;47.782;10.618;2023-09-30T04:08:30;94276.75;;;16.61;71.00
82416;BME280;72058;47.782;10.618;2023-09-30T04:10:59;94275.34;;;16.55;70.85
82416;BME280;72058;47.782;10.618;2023-09-30T04:13:24;94268.09;;;16.50;69.79
82416;BME280;72058;47.782;10.618;2023-09-30T04:15:50;94266.16;;;16.51;69.39
82416;BME280;72058;47.782;10.618;2023-09-30T04:18:16;94275.81;;;16.57;69.06
82416;BME280;72058;47.782;10.618;2023-09-30T04:20:41;94280.44;;;16.65;68.79
82416;BME280;72058;47.782;10.618;2023-09-30T04:23:07;94278.75;;;16.73;68.44
82416;BME280;72058;47.782;10.618;2023-09-30T04:25:34;94285.31;;;16.80;67.29
82416;BME280;72058;47.782;10.618;2023-09-30T04:28:00;94285.41;;;16.84;66.67
82416;BME280;72058;47.782;10.618;2023-09-30T04:30:28;94282.88;;;16.79;66.97
82416;BME280;72058;47.782;10.618;2023-09-30T04:32:54;94292.41;;;16.81;66.96
82416;BME280;72058;47.782;10.618;2023-09-30T04:35:20;94285.88;;;16.86;66.35
82416;BME280;72058;47.782;10.618;2023-09-30T04:37:45;94286.28;;;16.76;66.83
82416;BME280;72058;47.782;10.618;2023-09-30T04:40:11;94281.34;;;16.69;67.36
82416;BME280;72058;47.782;10.618;2023-09-30T04:42:45;94284.81;;;16.57;67.87
82416;BME280;72058;47.782;10.618;2023-09-30T04:45:12;94283.56;;;16.55;67.14
82416;BME280;72058;47.782;10.618;2023-09-30T04:47:38;94286.88;;;16.48;67.68
82416;BME280;72058;47.782;10.618;2023-09-30T04:50:06;94286.44;;;16.58;67.13
82416;BME280;72058;47.782;10.618;2023-09-30T04:52:33;94282.25;;;16.40;66.58
82416;BME280;72058;47.782;10.618;2023-09-30T04:54:58;94269.66;;;16.39;66.98
82416;BME280;72058;47.782;10.618;2023-09-30T04:57:25;94271.94;;;16.37;66.67
82416;BME280;72058;47.782;10.618;2023-09-30T04:59:51;94275.59;;;16.41;66.86
82416;BME280;72058;47.782;10.618;2023-09-30T05:02:17;94283.41;;;16.39;66.76
82416;BME280;72058;47.782;10.618;2023-09-30T05:04:42;94280.75;;;16.43;66.55
82416;BME280;72058;47.782;10.618;2023-09-30T05:07:08;94283.97;;;16.45;66.87
82416;BME280;72058;47.782;10.618;2023-09-30T05:09:34;94288.59;;;16.53;66.78
82416;BME280;72058;47.782;10.618;2023-09-30T05:11:59;94284.91;;;16.49;66.78
82416;BME280;72058;47.782;10.618;2023-09-30T05:14:24;94287.47;;;16.33;67.34
82416;BME280;72058;47.782;10.618;2023-09-30T05:16:50;94281.72;;;16.26;67.05
82416;BME280;72058;47.782;10.618;2023-09-30T05:19:15;94279.78;;;16.26;67.20
82416;BME280;72058;47.782;10.618;2023-09-30T05:21:41;94285.06;;;16.31;68.11
82416;BME280;72058;47.782;10.618;2023-09-30T05:24:07;94285.00;;;16.40;67.09
82416;BME280;72058;47.782;10.618;2023-09-30T05:26:32;94292.56;;;16.43;66.69
82416;BME280;72058;47.782;10.618;2023-09-30T05:28:58;94304.28;;;16.31;67.76
82416;BME280;72058;47.782;10.618;2023-09-30T05:31:24;94313.84;;;16.25;67.64
82416;BME280;72058;47.782;10.618;2023-09-30T05:33:50;94306.69;;;16.33;67.18
82416;BME280;72058;47.782;10.618;2023-09-30T05:36:15;94318.09;;;16.23;67.71
82416;BME280;72058;47.782;10.618;2023-09-30T05:38:40;94325.53;;;16.22;67.23
82416;BME280;72058;47.782;10.618;2023-09-30T05:41:07;94316.81;;;16.20;67.88
82416;BME280;72058;47.782;10.618;2023-09-30T05:43:32;94318.59;;;16.16;67.63
82416;BME280;72058;47.782;10.618;2023-09-30T05:45:57;94337.16;;;16.19;68.20
82416;BME280;72058;47.782;10.618;2023-09-30T05:48:24;94323.97;;;16.13;68.13
82416;BME280;72058;47.782;10.618;2023-09-30T05:50:49;94318.22;;;16.06;68.74
82416;BME280;72058;47.782;10.618;2023-09-30T05:53:15;94323.00;;;16.09;68.61
82416;BME280;72058;47.782;10.618;2023-09-30T05:55:41;94333.88;;;16.05;68.75
82416;BME280;72058;47.782;10.618;2023-09-30T05:58:13;94331.19;;;16.17;69.03
82416;BME280;72058;47.782;10.618;2023-09-30T06:00:42;94337.69;;;16.13;69.12
82416;BME280;72058;47.782;10.618;2023-09-30T06:03:08;94340.38;;;16.21;68.38
82416;BME280;72058;47.782;10.618;2023-09-30T06:05:34;94325.75;;;16.09;68.93
82416;BME280;72058;47.782;10.618;2023-09-30T06:08:03;94332.75;;;16.06;69.50
82416;BME280;72058;47.782;10.618;2023-09-30T06:10:28;94343.78;;;15.98;69.84
82416;BME280;72058;47.782;10.618;2023-09-30T06:12:55;94342.38;;;15.83;70.35
82416;BME280;72058;47.782;10.618;2023-09-30T06:15:21;94342.38;;;15.83;70.57
82416;BME280;72058;47.782;10.618;2023-09-30T06:17:51;94329.47;;;15.83;70.86
82416;BME280;72058;47.782;10.618;2023-09-30T06:20:20;94332.25;;;15.75;70.55
82416;BME280;72058;47.782;10.618;2023-09-30T06:22:48;94349.06;;;15.73;71.47
82416;BME280;72058;47.782;10.618;2023-09-30T06:25:17;94342.06;;;15.84;70.79
82416;BME280;72058;47.782;10.618;2023-09-30T06:27:46;94350.63;;;15.83;70.89
82416;BME280;72058;47.782;10.618;2023-09-30T06:30:13;94353.03;;;15.84;70.48
82416;BME280;72058;47.782;10.618;2023-09-30T06:32:38;94361.91;;;15.90;69.57
82416;BME280;72058;47.782;10.618;2023-09-30T06:35:04;94359.19;;;15.81;69.83
82416;BME280;72058;47.782;10.618;2023-09-30T06:37:32;94356.47;;;15.81;69.71
82416;BME280;72058;47.782;10.618;2023-09-30T06:39:57;94359.66;;;15.83;69.80
82416;BME280;72058;47.782;10.618;2023-09-30T06:42:23;94363.06;;;15.80;70.01
82416;BME280;72058;47.782;10.618;2023-09-30T06:44:48;94364.09;;;15.67;70.52
82416;BME280;72058;47.782;10.618;2023-09-30T06:47:14;94360.75;;;15.62;70.77
82416;BME280;72058;47.782;10.618;2023-09-30T06:49:39;94358.47;;;15.64;70.56
82416;BME280;72058;47.782;10.618;2023-09-30T06:52:05;94359.41;;;15.68;70.61
82416;BME280;72058;47.782;10.618;2023-09-30T06:54:31;94358.75;;;15.71;70.50
82416;BME280;72058;47.782;10.618;2023-09-30T06:56:57;94363.25;;;15.75;70.09
82416;BME280;72058;47.782;10.618;2023-09-30T06:59:22;94367.84;;;15.63;70.91
82416;BME280;72058;47.782;10.618;2023-09-30T07:01:47;94380.44;;;15.55;70.73
82416;BME280;72058;47.782;10.618;2023-09-30T07:04:13;94375.31;;;15.36;71.73
82416;BME280;72058;47.782;10.618;2023-09-30T07:06:38;94384.00;;;15.47;71.85
82416;BME280;72058;47.782;10.618;2023-09-30T07:09:03;94388.16;;;15.62;71.40
82416;BME280;72058;47.782;10.618;2023-09-30T07:11:30;94388.16;;;15.62;70.92
82416;BME280;72058;47.782;10.618;2023-09-30T07:13:58;94396.19;;;15.67;70.88
82416;BME280;72058;47.782;10.618;2023-09-30T07:16:23;94398.75;;;15.80;70.46
82416;BME280;72058;47.782;10.618;2023-09-30T07:18:51;94397.94;;;15.80;70.10
82416;BME280;72058;47.782;10.618;2023-09-30T07:21:17;94398.47;;;15.73;70.35
82416;BME280;72058;47.782;10.618;2023-09-30T07:23:42;94388.25;;;15.74;70.19
82416;BME280;72058;47.782;10.618;2023-09-30T07:26:08;94389.91;;;15.66;70.54
82416;BME280;72058;47.782;10.618;2023-09-30T07:28:33;94396.59;;;15.57;71.43
82416;BME280;72058;47.782;10.618;2023-09-30T07:30:59;94402.50;;;15.67;71.22
82416;BME280;72058;47.782;10.618;2023-09-30T07:33:24;94405.41;;;15.71;70.89
82416;BME280;72058;47.782;10.618;2023-09-30T07:35:50;94403.50;;;15.63;71.07
82416;BME280;72058;47.782;10.618;2023-09-30T07:38:15;94418.06;;;15.37;71.84
82416;BME280;72058;47.782;10.618;2023-09-30T07:40:41;94414.34;;;15.33;71.82
82416;BME280;72058;47.782;10.618;2023-09-30T07:43:06;94410.47;;;15.34;72.10
82416;BME280;72058;47.782;10.618;2023-09-30T07:45:32;94406.63;;;15.27;72.15
82416;BME280;72058;47.782;10.618;2023-09-30T07:47:57;94412.72;;;15.41;71.59
82416;BME280;72058;47.782;10.618;2023-09-30T07:50:29;94409.13;;;15.49;71.57
82416;BME280;72058;47.782;10.618;2023-09-30T07:52:54;94417.03;;;15.50;71.09
82416;BME280;72058;47.782;10.618;2023-09-30T07:55:20;94421.75;;;15.41;71.44
82416;BME280;72058;47.782;10.618;2023-09-30T07:57:45;94424.31;;;15.64;70.81
82416;BME280;72058;47.782;10.618;2023-09-30T08:00:11;94417.81;;;15.68;70.32
82416;BME280;72058;47.782;10.618;2023-09-30T08:02:41;94422.16;;;15.78;70.00
82416;BME280;72058;47.782;10.618;2023-09-30T08:05:06;94425.09;;;15.73;69.53
82416;BME280;72058;47.782;10.618;2023-09-30T08:07:33;94428.25;;;15.83;69.26
82416;BME280;72058;47.782;10.618;2023-09-30T08:09:58;94429.66;;;15.98;69.11
82416;BME280;72058;47.782;10.618;2023-09-30T08:12:23;94427.00;;;16.10;68.62
82416;BME280;72058;47.782;10.618;2023-09-30T08:14:49;94437.97;;;16.10;68.18
82416;BME280;72058;47.782;10.618;2023-09-30T08:17:16;94439.84;;;15.98;68.40
82416;BME280;72058;47.782;10.618;2023-09-30T08:19:43;94437.09;;;15.98;68.45
82416;BME280;72058;47.782;10.618;2023-09-30T08:22:08;94437.03;;;16.06;68.56
82416;BME280;72058;47.782;10.618;2023-09-30T08:24:34;94443.19;;;16.03;68.20
82416;BME280;72058;47.782;10.618;2023-09-30T08:27:00;94445.44;;;16.01;68.32
82416;BME280;72058;47.782;10.618;2023-09-30T08:29:26;94433.13;;;16.07;67.90
82416;BME280;72058;47.782;10.618;2023-09-30T08:31:51;94420.75;;;16.01;68.28
82416;BME280;72058;47.782;10.618;2023-09-30T08:34:16;94428.50;;;15.99;68.61
82416;BME280;72058;47.782;10.618;2023-09-30T08:36:43;94415.34;;;15.84;68.47
82416;BME280;72058;47.782;10.618;2023-09-30T08:39:08;94418.03;;;15.92;68.78
82416;BME280;72058;47.782;10.618;2023-09-30T08:41:37;94417.75;;;15.85;68.73
82416;BME280;72058;47.782;10.618;2023-09-30T08:44:04;94410.97;;;15.83;69.02
82416;BME280;72058;47.782;10.618;2023-09-30T08:46:34;94407.78;;;15.81;68.02
82416;BME280;72058;47.782;10.618;2023-09-30T08:49:04;94411.28;;;15.90;68.09
82416;BME280;72058;47.782;10.618;2023-09-30T08:51:31;94416.66;;;16.07;66.96
82416;BME280;72058;47.782;10.618;2023-09-30T08:53:58;94439.06;;;16.18;66.61
82416;BME280;72058;47.782;10.618;2023-09-30T08:56:28;94432.94;;;16.21;64.54
82416;BME280;72058;47.782;10.618;2023-09-30T08:58:58;94436.28;;;16.26;63.70
82416;BME280;72058;47.782;10.618;2023-09-30T09:01:26;94434.72;;;16.17;63.59
82416;BME280;72058;47.782;10.618;2023-09-30T09:03:52;94448.03;;;16.06;64.34
82416;BME280;72058;47.782;10.618;2023-09-30T09:06:22;94453.50;;;16.06;64.82
82416;BME280;72058;47.782;10.618;2023-09-30T09:08:48;94438.94;;;16.14;64.65
82416;BME280;72058;47.782;10.618;2023-09-30T09:11:13;94412.63;;;16.13;64.98
82416;BME280;72058;47.782;10.618;2023-09-30T09:16:11;94402.56;;;16.17;64.95
82416;BME280;72058;47.782;10.618;2023-09-30T09:18:38;94417.75;;;16.23;65.30
82416;BME280;72058;47.782;10.618;2023-09-30T09:21:11;94414.69;;;16.16;65.60
82416;BME280;72058;47.782;10.618;2023-09-30T09:23:44;94414.91;;;16.32;65.14
82416;BME280;72058;47.782;10.618;2023-09-30T09:26:11;94417.09;;;16.47;64.57
82416;BME280;72058;47.782;10.618;2023-09-30T09:28:37;94429.22;;;16.46;64.51
82416;BME280;72058;47.782;10.618;2023-09-30T09:31:24;94429.66;;;16.57;64.41
82416;BME280;72058;47.782;10.618;2023-09-30T09:33:53;94420.78;;;16.51;64.64
82416;BME280;72058;47.782;10.618;2023-09-30T09:36:19;94414.63;;;16.54;64.88
82416;BME280;72058;47.782;10.618;2023-09-30T09:38:48;94411.41;;;16.52;64.72
82416;BME280;72058;47.782;10.618;2023-09-30T09:41:15;94388.25;;;16.62;64.66
82416;BME280;72058;47.782;10.618;2023-09-30T09:43:41;94381.44;;;16.39;64.51
82416;BME280;72058;47.782;10.618;2023-09-30T09:46:08;94368.25;;;16.53;63.92
82416;BME280;72058;47.782;10.618;2023-09-30T09:48:37;94370.84;;;16.49;64.66
82416;BME280;72058;47.782;10.618;2023-09-30T09:51:04;94361.47;;;16.50;65.12
82416;BME280;72058;47.782;10.618;2023-09-30T09:53:30;94365.72;;;16.48;65.32
82416;BME280;72058;47.782;10.618;2023-09-30T09:55:59;94365.50;;;16.53;64.15
82416;BME280;72058;47.782;10.618;2023-09-30T09:58:25;94369.94;;;16.66;64.35
82416;BME280;72058;47.782;10.618;2023-09-30T10:00:52;94376.56;;;16.86;62.99
82416;BME280;72058;47.782;10.618;2023-09-30T10:03:18;94380.13;;;16.86;62.66
82416;BME280;72058;47.782;10.618;2023-09-30T10:05:44;94376.03;;;16.92;62.91
82416;BME280;72058;47.782;10.618;2023-09-30T10:08:14;94377.88;;;17.00;62.99
82416;BME280;72058;47.782;10.618;2023-09-30T10:10:43;94381.84;;;17.12;63.10
82416;BME280;72058;47.782;10.618;2023-09-30T10:13:09;94379.81;;;17.33;63.03
82416;BME280;72058;47.782;10.618;2023-09-30T10:15:55;94386.22;;;17.25;62.68
82416;BME280;72058;47.782;10.618;2023-09-30T10:18:20;94397.31;;;17.16;62.76
82416;BME280;72058;47.782;10.618;2023-09-30T10:20:45;94397.09;;;17.21;62.32
82416;BME280;72058;47.782;10.618;2023-09-30T10:23:23;94388.88;;;17.33;61.72
82416;BME280;72058;47.782;10.618;2023-09-30T10:25:54;94397.41;;;17.53;61.86
82416;BME280;72058;47.782;10.618;2023-09-30T10:36:39;94402.53;;;17.75;61.15
82416;BME280;72058;47.782;10.618;2023-09-30T10:39:10;94385.47;;;17.81;60.83
82416;BME280;72058;47.782;10.618;2023-09-30T10:49:46;94359.19;;;17.84;59.80
82416;BME280;72058;47.782;10.618;2023-09-30T10:52:21;94362.63;;;17.69;60.45
82416;BME280;72058;47.782;10.618;2023-09-30T10:54:48;94359.13;;;17.60;60.45
82416;BME280;72058;47.782;10.618;2023-09-30T10:57:26;94362.47;;;17.53;61.32
82416;BME280;72058;47.782;10.618;2023-09-30T11:00:07;94362.16;;;17.67;61.21
82416;BME280;72058;47.782;10.618;2023-09-30T11:02:33;94356.28;;;17.56;60.24
82416;BME280;72058;47.782;10.618;2023-09-30T11:05:08;94359.63;;;17.62;60.08
82416;BME280;72058;47.782;10.618;2023-09-30T11:07:34;94363.19;;;17.62;60.66
82416;BME280;72058;47.782;10.618;2023-09-30T11:10:02;94360.81;;;17.73;60.72
82416;BME280;72058;47.782;10.618;2023-09-30T11:12:28;94370.09;;;17.80;60.58
82416;BME280;72058;47.782;10.618;2023-09-30T11:15:02;94369.84;;;17.86;59.68
82416;BME280;72058;47.782;10.618;2023-09-30T11:17:28;94372.84;;;17.80;60.21
82416;BME280;72058;47.782;10.618;2023-09-30T11:19:54;94367.78;;;17.70;60.21
82416;BME280;72058;47.782;10.618;2023-09-30T11:22:20;94360.91;;;17.76;59.67
82416;BME280;72058;47.782;10.618;2023-09-30T11:24:45;94357.00;;;17.77;59.46
82416;BME280;72058;47.782;10.618;2023-09-30T11:27:11;94354.94;;;17.62;59.63
82416;BME280;72058;47.782;10.618;2023-09-30T11:29:36;94359.66;;;17.74;59.86
82416;BME280;72058;47.782;10.618;2023-09-30T11:32:02;94360.69;;;17.69;59.17
82416;BME280;72058;47.782;10.618;2023-09-30T11:34:33;94368.81;;;17.78;58.63
82416;BME280;72058;47.782;10.618;2023-09-30T11:37:00;94360.47;;;17.87;58.97
82416;BME280;72058;47.782;10.618;2023-09-30T11:39:27;94355.31;;;17.97;58.57
82416;BME280;72058;47.782;10.618;2023-09-30T11:41:53;94352.88;;;18.08;58.02
82416;BME280;72058;47.782;10.618;2023-09-30T11:44:22;94341.38;;;18.18;57.42
82416;BME280;72058;47.782;10.618;2023-09-30T11:46:52;94345.41;;;18.20;57.36
82416;BME280;72058;47.782;10.618;2023-09-30T11:49:31;94347.25;;;18.16;57.14
82416;BME280;72058;47.782;10.618;2023-09-30T11:52:06;94351.03;;;18.00;57.34
82416;BME280;72058;47.782;10.618;2023-09-30T11:54:37;94345.31;;;18.05;57.63
82416;BME280;72058;47.782;10.618;2023-09-30T11:57:06;94343.47;;;18.09;57.12
82416;BME280;72058;47.782;10.618;2023-09-30T11:59:34;94335.31;;;18.12;57.53
82416;BME280;72058;47.782;10.618;2023-09-30T12:02:01;94325.56;;;18.03;56.85
82416;BME280;72058;47.782;10.618;2023-09-30T12:04:26;94326.28;;;17.88;57.53
82416;BME280;72058;47.782;10.618;2023-09-30T12:06:51;94335.19;;;17.60;57.91
82416;BME280;72058;47.782;10.618;2023-09-30T12:09:17;94321.66;;;17.55;58.46
82416;BME280;72058;47.782;10.618;2023-09-30T12:11:48;94318.19;;;17.58;58.91
82416;BME280;72058;47.782;10.618;2023-09-30T12:14:14;94324.06;;;17.57;58.88
82416;BME280;72058;47.782;10.618;2023-09-30T12:16:39;94321.25;;;17.65;58.78
82416;BME280;72058;47.782;10.618;2023-09-30T12:19:05;94321.91;;;17.62;58.70
82416;BME280;72058;47.782;10.618;2023-09-30T12:21:31;94318.03;;;17.63;58.05
82416;BME280;72058;47.782;10.618;2023-09-30T12:23:57;94311.13;;;17.57;57.75
82416;BME280;72058;47.782;10.618;2023-09-30T12:26:23;94311.78;;;17.54;58.59
82416;BME280;72058;47.782;10.618;2023-09-30T12:28:49;94304.50;;;17.70;58.02
82416;BME280;72058;47.782;10.618;2023-09-30T12:31:14;94305.84;;;17.76;58.07
82416;BME280;72058;47.782;10.618;2023-09-30T12:33:40;94297.94;;;17.87;57.69
82416;BME280;72058;47.782;10.618;2023-09-30T12:36:06;94308.13;;;17.74;57.28
82416;BME280;72058;47.782;10.618;2023-09-30T12:38:32;94299.09;;;17.86;57.35
82416;BME280;72058;47.782;10.618;2023-09-30T12:40:58;94304.34;;;17.91;58.18
82416;BME280;72058;47.782;10.618;2023-09-30T12:43:23;94294.94;;;18.04;57.49
82416;BME280;72058;47.782;10.618;2023-09-30T12:45:49;94297.78;;;18.08;56.92
82416;BME280;72058;47.782;10.618;2023-09-30T12:48:14;94302.75;;;18.14;56.49
82416;BME280;72058;47.782;10.618;2023-09-30T12:50:41;94304.69;;;18.14;56.57
82416;BME280;72058;47.782;10.618;2023-09-30T12:53:06;94301.22;;;18.17;56.64
82416;BME280;72058;47.782;10.618;2023-09-30T12:55:32;94300.91;;;17.94;56.69
82416;BME280;72058;47.782;10.618;2023-09-30T12:57:58;94293.81;;;17.93;57.18
82416;BME280;72058;47.782;10.618;2023-09-30T13:00:25;94294.25;;;17.95;57.83
82416;BME280;72058;47.782;10.618;2023-09-30T13:02:51;94287.53;;;17.80;57.09
82416;BME280;72058;47.782;10.618;2023-09-30T13:05:17;94284.97;;;17.75;58.01
82416;BME280;72058;47.782;10.618;2023-09-30T13:07:43;94290.50;;;17.88;58.24